sensor_id;sensor_type;location;lat;lon;timestamp;pressure;altitude;pressure_sealevel;temperature;humidity
10668;BME280;5382;42.136;24.796;2024-02-26T00:02:15;99562.91;;;11.74;100.00
10668;BME280;5382;42.136;24.796;2024-02-26T00:04:43;99567.25;;;11.75;100.00
10668;BME280;5382;42.136;24.796;2024-02-26T00:07:11;99560.94;;;11.55;100.00
10668;BME280;5382;42.136;24.796;2024-02-26T00:09:39;99566.34;;;11.65;100.00
10668;BME280;5382;42.136;24.796;2024-02-26T00:12:06;99560.88;;;11.77;100.00
10668;BME280;5382;42.136;24.796;2024-02-26T00:14:33;99541.50;;;11.66;100.00
10668;BME280;5382;42.136;24.796;2024-02-26T00:17:00;99556.94;;;11.61;100.00
10668;BME280;5382;42.136;24.796;2024-02-26T00:19:28;99551.78;;;11.59;100.00
10668;BME280;5382;42.136;24.796;2024-02-26T00:21:55;99549.28;;;11.46;100.00
10668;BME280;5382;42.136;24.796;2024-02-26T00:24:22;99549.41;;;11.45;100.00
10668;BME280;5382;42.136;24.796;2024-02-26T00:26:49;99535.09;;;11.36;100.00
10668;BME280;5382;42.136;24.796;2024-02-26T00:29:20;99514.91;;;11.24;100.00
10668;BME280;5382;42.136;24.796;2024-02-26T00:31:47;99477.03;;;11.01;100.00
10668;BME280;5382;42.136;24.796;2024-02-26T00:34:14;99551.84;;;11.37;100.00
10668;BME280;5382;42.136;24.796;2024-02-26T00:36:41;99563.25;;;11.37;100.00
10668;BME280;5382;42.136;24.796;2024-02-26T00:39:08;99568.78;;;11.45;100.00
10668;BME280;5382;42.136;24.796;2024-02-26T00:41:40;99564.47;;;11.44;100.00
10668;BME280;5382;42.136;24.796;2024-02-26T00:44:08;99508.03;;;11.10;100.00
10668;BME280;5382;42.136;24.796;2024-02-26T00:46:35;99561.31;;;11.50;100.00
10668;BME280;5382;42.136;24.796;2024-02-26T00:49:02;99559.53;;;11.40;100.00
10668;BME280;5382;42.136;24.796;2024-02-26T00:51:29;99547.63;;;11.23;100.00
10668;BME280;5382;42.136;24.796;2024-02-26T00:53:56;99561.22;;;11.29;100.00
10668;BME280;5382;42.136;24.796;2024-02-26T00:56:23;99479.59;;;10.80;100.00
10668;BME280;5382;42.136;24.796;2024-02-26T00:58:51;99557.13;;;11.37;100.00
10668;BME280;5382;42.136;24.796;2024-02-26T01:01:18;99510.78;;;11.31;100.00
10668;BME280;5382;42.136;24.796;2024-02-26T01:03:46;99480.69;;;11.32;100.00
10668;BME280;5382;42.136;24.796;2024-02-26T01:06:12;99467.25;;;11.12;100.00
10668;BME280;5382;42.136;24.796;2024-02-26T01:08:39;99385.44;;;10.55;100.00
10668;BME280;5382;42.136;24.796;2024-02-26T01:11:06;99453.69;;;11.06;100.00
10668;BME280;5382;42.136;24.796;2024-02-26T01:13:34;99442.75;;;10.88;100.00
10668;BME280;5382;42.136;24.796;2024-02-26T01:16:03;99463.81;;;10.78;100.00
10668;BME280;5382;42.136;24.796;2024-02-26T01:18:30;99486.09;;;10.87;100.00
10668;BME280;5382;42.136;24.796;2024-02-26T01:20:57;99511.59;;;10.54;100.00
10668;BME280;5382;42.136;24.796;2024-02-26T01:23:24;99381.31;;;9.60;100.00
10668;BME280;5382;42.136;24.796;2024-02-26T01:25:51;99489.81;;;10.62;100.00
10668;BME280;5382;42.136;24.796;2024-02-26T01:28:18;99511.22;;;10.70;100.00
10668;BME280;5382;42.136;24.796;2024-02-26T01:30:45;99504.97;;;10.60;100.00
10668;BME280;5382;42.136;24.796;2024-02-26T01:33:13;99505.09;;;10.69;100.00
10668;BME280;5382;42.136;24.796;2024-02-26T01:35:40;99511.47;;;10.78;100.00
10668;BME280;5382;42.136;24.796;2024-02-26T01:38:06;99491.03;;;10.69;100.00
10668;BME280;5382;42.136;24.796;2024-02-26T01:40:33;99485.34;;;10.74;100.00
10668;BME280;5382;42.136;24.796;2024-02-26T01:43:00;99504.00;;;10.95;100.00
10668;BME280;5382;42.136;24.796;2024-02-26T01:45:27;99520.38;;;11.00;100.00
10668;BME280;5382;42.136;24.796;2024-02-26T01:47:54;99511.09;;;11.05;100.00
10668;BME280;5382;42.136;24.796;2024-02-26T01:50:23;99526.72;;;11.08;100.00
10668;BME280;5382;42.136;24.796;2024-02-26T01:52:51;99496.06;;;10.95;100.00
10668;BME280;5382;42.136;24.796;2024-02-26T01:55:20;99509.50;;;11.14;100.00
10668;BME280;5382;42.136;24.796;2024-02-26T01:57:50;99452.03;;;10.82;100.00
10668;BME280;5382;42.136;24.796;2024-02-26T02:00:18;99521.28;;;11.21;100.00
10668;BME280;5382;42.136;24.796;2024-02-26T02:02:46;99520.81;;;11.16;100.00
10668;BME280;5382;42.136;24.796;2024-02-26T02:05:15;99522.00;;;11.12;100.00
10668;BME280;5382;42.136;24.796;2024-02-26T02:07:44;99508.19;;;11.08;100.00
10668;BME280;5382;42.136;24.796;2024-02-26T02:10:12;99514.06;;;11.23;100.00
10668;BME280;5382;42.136;24.796;2024-02-26T02:12:39;99509.25;;;11.17;100.00
10668;BME280;5382;42.136;24.796;2024-02-26T02:15:07;99472.25;;;10.95;100.00
10668;BME280;5382;42.136;24.796;2024-02-26T02:17:34;99503.84;;;11.07;100.00
10668;BME280;5382;42.136;24.796;2024-02-26T02:20:01;99506.84;;;11.14;100.00
10668;BME280;5382;42.136;24.796;2024-02-26T02:22:30;99508.03;;;11.10;100.00
10668;BME280;5382;42.136;24.796;2024-02-26T02:24:58;99472.47;;;10.91;100.00
10668;BME280;5382;42.136;24.796;2024-02-26T02:27:27;99503.38;;;11.13;100.00
10668;BME280;5382;42.136;24.796;2024-02-26T02:29:55;99507.22;;;11.09;100.00
10668;BME280;5382;42.136;24.796;2024-02-26T02:32:22;99473.66;;;10.99;100.00
10668;BME280;5382;42.136;24.796;2024-02-26T02:34:51;99497.00;;;11.05;100.00
10668;BME280;5382;42.136;24.796;2024-02-26T02:37:18;99496.88;;;11.06;100.00
10668;BME280;5382;42.136;24.796;2024-02-26T02:39:47;99508.69;;;11.02;100.00
10668;BME280;5382;42.136;24.796;2024-02-26T02:42:15;99466.72;;;10.75;100.00
10668;BME280;5382;42.136;24.796;2024-02-26T02:44:42;99508.81;;;11.01;100.00
10668;BME280;5382;42.136;24.796;2024-02-26T02:47:10;99508.69;;;11.02;100.00
10668;BME280;5382;42.136;24.796;2024-02-26T02:49:37;99502.91;;;10.97;100.00
10668;BME280;5382;42.136;24.796;2024-02-26T02:52:04;99518.69;;;10.87;100.00
10668;BME280;5382;42.136;24.796;2024-02-26T02:54:31;99440.91;;;10.34;100.00
10668;BME280;5382;42.136;24.796;2024-02-26T02:56:59;99511.81;;;10.74;100.00
10668;BME280;5382;42.136;24.796;2024-02-26T02:59:27;99507.16;;;10.43;100.00
10668;BME280;5382;42.136;24.796;2024-02-26T03:01:54;99532.13;;;10.51;100.00
10668;BME280;5382;42.136;24.796;2024-02-26T03:04:21;99501.88;;;10.08;100.00
10668;BME280;5382;42.136;24.796;2024-02-26T03:06:48;99516.91;;;10.08;100.00
10668;BME280;5382;42.136;24.796;2024-02-26T03:09:14;99491.28;;;9.97;100.00
10668;BME280;5382;42.136;24.796;2024-02-26T03:11:41;99521.94;;;9.99;100.00
10668;BME280;5382;42.136;24.796;2024-02-26T03:14:10;99520.00;;;10.01;100.00
10668;BME280;5382;42.136;24.796;2024-02-26T03:16:37;99532.06;;;10.17;100.00
10668;BME280;5382;42.136;24.796;2024-02-26T03:19:04;99491.63;;;9.92;100.00
10668;BME280;5382;42.136;24.796;2024-02-26T03:21:31;99536.63;;;10.15;100.00
10668;BME280;5382;42.136;24.796;2024-02-26T03:23:58;99500.28;;;9.94;100.00
10668;BME280;5382;42.136;24.796;2024-02-26T03:26:25;99494.34;;;9.79;100.00
10668;BME280;5382;42.136;24.796;2024-02-26T03:28:52;99536.75;;;10.24;100.00
10668;BME280;5382;42.136;24.796;2024-02-26T03:31:20;99533.41;;;10.22;100.00
10668;BME280;5382;42.136;24.796;2024-02-26T03:33:47;99531.88;;;10.31;100.00
10668;BME280;5382;42.136;24.796;2024-02-26T03:36:14;99526.69;;;10.30;100.00
10668;BME280;5382;42.136;24.796;2024-02-26T03:38:42;99529.47;;;10.28;100.00
10668;BME280;5382;42.136;24.796;2024-02-26T03:41:09;99524.06;;;10.30;100.00
10668;BME280;5382;42.136;24.796;2024-02-26T03:43:36;99522.84;;;10.22;100.00
10668;BME280;5382;42.136;24.796;2024-02-26T03:46:03;99532.03;;;10.05;100.00
10668;BME280;5382;42.136;24.796;2024-02-26T03:48:31;99477.97;;;9.63;100.00
10668;BME280;5382;42.136;24.796;2024-02-26T03:50:58;99505.44;;;9.85;100.00
10668;BME280;5382;42.136;24.796;2024-02-26T03:53:25;99534.91;;;10.02;100.00
10668;BME280;5382;42.136;24.796;2024-02-26T03:55:53;99529.63;;;10.02;100.00
10668;BME280;5382;42.136;24.796;2024-02-26T03:58:21;99493.19;;;9.83;100.00
10668;BME280;5382;42.136;24.796;2024-02-26T04:00:48;99540.69;;;10.08;100.00
10668;BME280;5382;42.136;24.796;2024-02-26T04:03:15;99548.78;;;10.17;100.00
10668;BME280;5382;42.136;24.796;2024-02-26T04:05:43;99545.84;;;10.09;100.00
10668;BME280;5382;42.136;24.796;2024-02-26T04:08:10;99421.19;;;9.33;100.00
10668;BME280;5382;42.136;24.796;2024-02-26T04:10:37;99533.59;;;10.08;100.00
10668;BME280;5382;42.136;24.796;2024-02-26T04:13:05;99528.56;;;10.05;100.00
10668;BME280;5382;42.136;24.796;2024-02-26T04:15:32;99497.50;;;9.85;100.00
10668;BME280;5382;42.136;24.796;2024-02-26T04:17:59;99530.34;;;10.04;100.00
10668;BME280;5382;42.136;24.796;2024-02-26T04:20:26;99519.28;;;9.99;100.00
10668;BME280;5382;42.136;24.796;2024-02-26T04:22:54;99540.84;;;10.17;100.00
10668;BME280;5382;42.136;24.796;2024-02-26T04:25:21;99534.47;;;10.20;100.00
10668;BME280;5382;42.136;24.796;2024-02-26T04:27:48;99534.00;;;10.15;100.00
10668;BME280;5382;42.136;24.796;2024-02-26T04:30:15;99527.34;;;10.09;100.00
10668;BME280;5382;42.136;24.796;2024-02-26T04:32:43;99537.81;;;10.11;100.00
10668;BME280;5382;42.136;24.796;2024-02-26T04:35:10;99512.03;;;9.90;100.00
10668;BME280;5382;42.136;24.796;2024-02-26T04:37:37;99536.56;;;9.92;100.00
10668;BME280;5382;42.136;24.796;2024-02-26T04:40:07;99556.16;;;10.01;100.00
10668;BME280;5382;42.136;24.796;2024-02-26T04:42:34;99525.75;;;9.95;100.00
10668;BME280;5382;42.136;24.796;2024-02-26T04:45:01;99537.78;;;9.99;100.00
10668;BME280;5382;42.136;24.796;2024-02-26T04:47:28;99539.94;;;9.94;100.00
10668;BME280;5382;42.136;24.796;2024-02-26T04:49:55;99527.31;;;9.87;100.00
10668;BME280;5382;42.136;24.796;2024-02-26T04:52:21;99536.94;;;9.99;100.00
10668;BME280;5382;42.136;24.796;2024-02-26T04:54:48;99512.97;;;9.78;100.00
10668;BME280;5382;42.136;24.796;2024-02-26T04:57:17;99551.34;;;9.95;100.00
10668;BME280;5382;42.136;24.796;2024-02-26T04:59:44;99554.50;;;10.00;100.00
10668;BME280;5382;42.136;24.796;2024-02-26T05:02:11;99515.72;;;9.76;100.00
10668;BME280;5382;42.136;24.796;2024-02-26T05:04:38;99548.84;;;10.04;100.00
10668;BME280;5382;42.136;24.796;2024-02-26T05:07:05;99520.00;;;9.66;100.00
10668;BME280;5382;42.136;24.796;2024-02-26T05:09:32;99549.19;;;10.00;100.00
10668;BME280;5382;42.136;24.796;2024-02-26T05:11:59;99494.19;;;9.70;100.00
10668;BME280;5382;42.136;24.796;2024-02-26T05:14:28;99542.75;;;10.15;100.00
10668;BME280;5382;42.136;24.796;2024-02-26T05:16:55;99547.91;;;10.17;100.00
10668;BME280;5382;42.136;24.796;2024-02-26T05:19:22;99544.66;;;10.13;100.00
10668;BME280;5382;42.136;24.796;2024-02-26T05:21:49;99517.34;;;10.01;100.00
10668;BME280;5382;42.136;24.796;2024-02-26T05:24:17;99548.41;;;10.22;100.00
10668;BME280;5382;42.136;24.796;2024-02-26T05:26:44;99553.69;;;10.22;100.00
10668;BME280;5382;42.136;24.796;2024-02-26T05:29:11;99527.56;;;9.95;100.00
10668;BME280;5382;42.136;24.796;2024-02-26T05:31:42;99469.91;;;9.53;100.00
10668;BME280;5382;42.136;24.796;2024-02-26T05:34:09;99506.22;;;9.74;100.00
10668;BME280;5382;42.136;24.796;2024-02-26T05:36:36;99548.22;;;10.01;100.00
10668;BME280;5382;42.136;24.796;2024-02-26T05:39:03;99568.72;;;10.21;100.00
10668;BME280;5382;42.136;24.796;2024-02-26T05:41:30;99560.38;;;10.28;100.00
10668;BME280;5382;42.136;24.796;2024-02-26T05:43:57;99500.25;;;9.83;100.00
10668;BME280;5382;42.136;24.796;2024-02-26T05:46:25;99536.75;;;10.24;100.00
10668;BME280;5382;42.136;24.796;2024-02-26T05:48:53;99580.38;;;10.54;100.00
10668;BME280;5382;42.136;24.796;2024-02-26T05:51:21;99571.97;;;10.72;100.00
10668;BME280;5382;42.136;24.796;2024-02-26T05:53:48;99575.31;;;10.74;100.00
10668;BME280;5382;42.136;24.796;2024-02-26T05:56:19;99577.28;;;10.83;100.00
10668;BME280;5382;42.136;24.796;2024-02-26T05:58:47;99580.66;;;10.85;100.00
10668;BME280;5382;42.136;24.796;2024-02-26T06:01:15;99564.41;;;10.67;100.00
10668;BME280;5382;42.136;24.796;2024-02-26T06:03:42;99590.38;;;10.73;100.00
10668;BME280;5382;42.136;24.796;2024-02-26T06:06:11;99591.22;;;10.74;100.00
10668;BME280;5382;42.136;24.796;2024-02-26T06:08:39;99591.22;;;10.74;100.00
10668;BME280;5382;42.136;24.796;2024-02-26T06:11:06;99590.97;;;10.65;100.00
10668;BME280;5382;42.136;24.796;2024-02-26T06:13:33;99598.44;;;10.72;100.00
10668;BME280;5382;42.136;24.796;2024-02-26T06:16:01;99603.84;;;10.81;100.00
10668;BME280;5382;42.136;24.796;2024-02-26T06:18:28;99581.25;;;10.77;100.00
10668;BME280;5382;42.136;24.796;2024-02-26T06:20:55;99598.56;;;10.81;100.00
10668;BME280;5382;42.136;24.796;2024-02-26T06:23:24;99606.13;;;10.86;100.00
10668;BME280;5382;42.136;24.796;2024-02-26T06:25:51;99598.09;;;10.87;100.00
10668;BME280;5382;42.136;24.796;2024-02-26T06:28:19;99612.66;;;10.93;100.00
10668;BME280;5382;42.136;24.796;2024-02-26T06:30:46;99601.09;;;11.05;100.00
10668;BME280;5382;42.136;24.796;2024-02-26T06:33:13;99612.41;;;11.07;100.00
10668;BME280;5382;42.136;24.796;2024-02-26T06:35:40;99584.63;;;10.79;100.00
10668;BME280;5382;42.136;24.796;2024-02-26T06:38:07;99599.53;;;10.80;100.00
10668;BME280;5382;42.136;24.796;2024-02-26T06:40:36;99640.09;;;10.92;100.00
10668;BME280;5382;42.136;24.796;2024-02-26T06:43:03;99632.63;;;10.97;100.00
10668;BME280;5382;42.136;24.796;2024-02-26T06:45:30;99611.22;;;11.00;100.00
10668;BME280;5382;42.136;24.796;2024-02-26T06:47:58;99623.13;;;11.06;100.00
10668;BME280;5382;42.136;24.796;2024-02-26T06:50:25;99602.78;;;10.95;100.00
10668;BME280;5382;42.136;24.796;2024-02-26T06:52:52;99628.78;;;11.01;100.00
10668;BME280;5382;42.136;24.796;2024-02-26T06:55:19;99634.22;;;11.00;100.00
10668;BME280;5382;42.136;24.796;2024-02-26T06:57:48;99630.34;;;11.04;100.00
10668;BME280;5382;42.136;24.796;2024-02-26T07:00:15;99633.84;;;11.16;100.00
10668;BME280;5382;42.136;24.796;2024-02-26T07:02:43;99626.75;;;11.16;100.00
10668;BME280;5382;42.136;24.796;2024-02-26T07:05:10;99619.97;;;11.12;100.00
10668;BME280;5382;42.136;24.796;2024-02-26T07:07:37;99643.22;;;11.31;100.00
10668;BME280;5382;42.136;24.796;2024-02-26T07:10:05;99642.00;;;11.35;100.00
10668;BME280;5382;42.136;24.796;2024-02-26T07:12:33;99635.38;;;11.41;100.00
10668;BME280;5382;42.136;24.796;2024-02-26T07:15:01;99627.06;;;11.45;100.00
10668;BME280;5382;42.136;24.796;2024-02-26T07:17:28;99613.13;;;11.32;100.00
10668;BME280;5382;42.136;24.796;2024-02-26T07:19:59;99614.19;;;11.29;100.00
10668;BME280;5382;42.136;24.796;2024-02-26T07:22:26;99629.72;;;11.23;100.00
10668;BME280;5382;42.136;24.796;2024-02-26T07:24:53;99628.16;;;11.20;100.00
10668;BME280;5382;42.136;24.796;2024-02-26T07:27:19;99594.59;;;11.09;100.00
10668;BME280;5382;42.136;24.796;2024-02-26T07:29:47;99610.09;;;11.25;100.00
10668;BME280;5382;42.136;24.796;2024-02-26T07:32:16;99611.91;;;11.25;100.00
10668;BME280;5382;42.136;24.796;2024-02-26T07:34:43;99562.97;;;10.85;100.00
10668;BME280;5382;42.136;24.796;2024-02-26T07:37:11;99646.94;;;11.40;100.00
10668;BME280;5382;42.136;24.796;2024-02-26T07:39:38;99649.81;;;11.48;100.00
10668;BME280;5382;42.136;24.796;2024-02-26T07:42:05;99625.03;;;11.38;100.00
10668;BME280;5382;42.136;24.796;2024-02-26T07:44:33;99605.75;;;11.35;100.00
10668;BME280;5382;42.136;24.796;2024-02-26T07:47:00;99633.56;;;11.52;100.00
10668;BME280;5382;42.136;24.796;2024-02-26T07:49:29;99629.25;;;11.51;100.00
10668;BME280;5382;42.136;24.796;2024-02-26T07:51:56;99624.53;;;11.55;100.00
10668;BME280;5382;42.136;24.796;2024-02-26T07:54:24;99618.75;;;11.50;100.00
10668;BME280;5382;42.136;24.796;2024-02-26T07:56:51;99631.59;;;11.66;100.00
10668;BME280;5382;42.136;24.796;2024-02-26T07:59:18;99629.22;;;11.63;100.00
10668;BME280;5382;42.136;24.796;2024-02-26T08:01:49;99604.41;;;11.52;100.00
10668;BME280;5382;42.136;24.796;2024-02-26T08:04:16;99631.34;;;11.69;100.00
10668;BME280;5382;42.136;24.796;2024-02-26T08:06:45;99632.28;;;11.79;100.00
10668;BME280;5382;42.136;24.796;2024-02-26T08:09:12;99636.38;;;11.94;100.00
10668;BME280;5382;42.136;24.796;2024-02-26T08:11:39;99598.31;;;11.84;100.00
10668;BME280;5382;42.136;24.796;2024-02-26T08:14:06;99638.38;;;12.13;100.00
10668;BME280;5382;42.136;24.796;2024-02-26T08:16:33;99628.28;;;12.28;100.00
10668;BME280;5382;42.136;24.796;2024-02-26T08:19:00;99629.19;;;12.38;100.00
10668;BME280;5382;42.136;24.796;2024-02-26T08:21:27;99628.38;;;12.38;100.00
10668;BME280;5382;42.136;24.796;2024-02-26T08:23:56;99609.53;;;12.41;100.00
10668;BME280;5382;42.136;24.796;2024-02-26T08:26:23;99629.09;;;12.61;100.00
10668;BME280;5382;42.136;24.796;2024-02-26T08:28:50;99625.44;;;12.62;100.00
10668;BME280;5382;42.136;24.796;2024-02-26T08:31:17;99636.84;;;12.74;100.00
10668;BME280;5382;42.136;24.796;2024-02-26T08:33:44;99631.22;;;12.67;100.00
10668;BME280;5382;42.136;24.796;2024-02-26T08:36:11;99625.78;;;12.69;100.00
10668;BME280;5382;42.136;24.796;2024-02-26T08:38:38;99615.22;;;12.78;100.00
10668;BME280;5382;42.136;24.796;2024-02-26T08:41:07;99629.53;;;12.87;100.00
10668;BME280;5382;42.136;24.796;2024-02-26T08:43:34;99622.13;;;12.91;100.00
10668;BME280;5382;42.136;24.796;2024-02-26T08:46:01;99624.31;;;12.85;100.00
10668;BME280;5382;42.136;24.796;2024-02-26T08:48:28;99625.94;;;12.98;100.00
10668;BME280;5382;42.136;24.796;2024-02-26T08:50:55;99625.28;;;13.05;100.00
10668;BME280;5382;42.136;24.796;2024-02-26T08:53:22;99618.72;;;13.09;100.00
10668;BME280;5382;42.136;24.796;2024-02-26T08:55:49;99624.66;;;13.23;100.00
10668;BME280;5382;42.136;24.796;2024-02-26T08:58:18;99624.34;;;13.16;100.00
10668;BME280;5382;42.136;24.796;2024-02-26T09:00:46;99616.31;;;13.27;100.00
10668;BME280;5382;42.136;24.796;2024-02-26T09:03:13;99619.69;;;13.39;100.00
10668;BME280;5382;42.136;24.796;2024-02-26T09:05:40;99617.19;;;13.47;100.00
10668;BME280;5382;42.136;24.796;2024-02-26T09:08:07;99628.56;;;13.59;100.00
10668;BME280;5382;42.136;24.796;2024-02-26T09:10:34;99619.22;;;13.74;100.00
10668;BME280;5382;42.136;24.796;2024-02-26T09:13:01;99620.63;;;13.88;100.00
10668;BME280;5382;42.136;24.796;2024-02-26T09:15:30;99545.28;;;13.39;100.00
10668;BME280;5382;42.136;24.796;2024-02-26T09:17:57;99622.50;;;14.07;100.00
10668;BME280;5382;42.136;24.796;2024-02-26T09:20:24;99615.78;;;14.23;100.00
10668;BME280;5382;42.136;24.796;2024-02-26T09:22:51;99606.38;;;14.28;100.00
10668;BME280;5382;42.136;24.796;2024-02-26T09:25:19;99620.78;;;14.45;100.00
10668;BME280;5382;42.136;24.796;2024-02-26T09:27:46;99637.47;;;14.47;100.00
10668;BME280;5382;42.136;24.796;2024-02-26T09:30:14;99623.72;;;14.32;100.00
10668;BME280;5382;42.136;24.796;2024-02-26T09:32:46;99627.22;;;14.52;100.00
10668;BME280;5382;42.136;24.796;2024-02-26T09:35:13;99625.44;;;14.43;100.00
10668;BME280;5382;42.136;24.796;2024-02-26T09:37:40;99611.16;;;14.54;100.00
10668;BME280;5382;42.136;24.796;2024-02-26T09:40:10;99619.09;;;14.73;100.00
10668;BME280;5382;42.136;24.796;2024-02-26T09:42:43;99579.69;;;14.77;100.00
10668;BME280;5382;42.136;24.796;2024-02-26T09:45:11;99616.78;;;14.98;100.00
10668;BME280;5382;42.136;24.796;2024-02-26T09:47:42;99614.34;;;15.04;100.00
10668;BME280;5382;42.136;24.796;2024-02-26T09:50:10;99613.13;;;14.99;100.00
10668;BME280;5382;42.136;24.796;2024-02-26T09:52:39;99586.84;;;15.14;100.00
10668;BME280;5382;42.136;24.796;2024-02-26T09:55:08;99608.91;;;15.34;100.00
10668;BME280;5382;42.136;24.796;2024-02-26T09:57:37;99608.19;;;15.41;100.00
10668;BME280;5382;42.136;24.796;2024-02-26T10:00:06;99555.81;;;14.95;100.00
10668;BME280;5382;42.136;24.796;2024-02-26T10:02:38;99595.44;;;15.35;100.00
10668;BME280;5382;42.136;24.796;2024-02-26T10:05:10;99593.91;;;15.33;100.00
10668;BME280;5382;42.136;24.796;2024-02-26T10:07:39;99588.81;;;15.67;100.00
10668;BME280;5382;42.136;24.796;2024-02-26T10:10:08;99579.16;;;15.84;100.00
10668;BME280;5382;42.136;24.796;2024-02-26T10:12:36;99518.88;;;15.73;100.00
10668;BME280;5382;42.136;24.796;2024-02-26T10:15:03;99572.75;;;16.12;100.00
10668;BME280;5382;42.136;24.796;2024-02-26T10:17:30;99572.66;;;16.22;100.00
10668;BME280;5382;42.136;24.796;2024-02-26T10:20:13;99571.81;;;16.40;100.00
10668;BME280;5382;42.136;24.796;2024-02-26T10:22:43;99504.03;;;16.14;100.00
10668;BME280;5382;42.136;24.796;2024-02-26T10:25:10;99555.50;;;16.51;100.00
10668;BME280;5382;42.136;24.796;2024-02-26T10:27:37;99563.19;;;16.54;100.00
10668;BME280;5382;42.136;24.796;2024-02-26T10:30:15;99550.31;;;16.49;100.00
10668;BME280;5382;42.136;24.796;2024-02-26T10:32:43;99554.03;;;16.56;100.00
10668;BME280;5382;42.136;24.796;2024-02-26T10:35:12;99549.44;;;16.67;100.00
10668;BME280;5382;42.136;24.796;2024-02-26T10:37:40;99544.72;;;16.87;100.00
10668;BME280;5382;42.136;24.796;2024-02-26T10:40:10;99541.56;;;16.83;100.00
10668;BME280;5382;42.136;24.796;2024-02-26T10:42:37;99486.91;;;16.51;100.00
10668;BME280;5382;42.136;24.796;2024-02-26T10:45:05;99524.91;;;16.97;100.00
10668;BME280;5382;42.136;24.796;2024-02-26T10:47:32;99508.72;;;16.99;100.00
10668;BME280;5382;42.136;24.796;2024-02-26T10:50:02;99527.97;;;17.19;100.00
10668;BME280;5382;42.136;24.796;2024-02-26T10:52:32;99533.53;;;17.34;100.00
10668;BME280;5382;42.136;24.796;2024-02-26T10:55:01;99526.22;;;17.44;100.00
10668;BME280;5382;42.136;24.796;2024-02-26T10:57:32;99493.63;;;17.40;100.00
10668;BME280;5382;42.136;24.796;2024-02-26T11:00:01;99524.59;;;17.67;100.00
10668;BME280;5382;42.136;24.796;2024-02-26T11:02:31;99524.22;;;17.54;100.00
10668;BME280;5382;42.136;24.796;2024-02-26T11:05:01;99466.31;;;17.12;100.00
10668;BME280;5382;42.136;24.796;2024-02-26T11:07:31;99495.13;;;17.35;100.00
10668;BME280;5382;42.136;24.796;2024-02-26T11:09:59;99509.41;;;17.76;100.00
10668;BME280;5382;42.136;24.796;2024-02-26T11:12:28;99511.59;;;17.97;100.00
10668;BME280;5382;42.136;24.796;2024-02-26T11:14:56;99508.25;;;17.87;100.00
10668;BME280;5382;42.136;24.796;2024-02-26T11:17:26;99503.53;;;17.73;100.00
10668;BME280;5382;42.136;24.796;2024-02-26T11:19:55;99453.50;;;17.57;100.00
10668;BME280;5382;42.136;24.796;2024-02-26T11:22:23;99500.50;;;18.25;100.00
10668;BME280;5382;42.136;24.796;2024-02-26T11:24:53;99492.75;;;18.55;100.00
10668;BME280;5382;42.136;24.796;2024-02-26T11:27:25;99458.34;;;18.27;100.00
10668;BME280;5382;42.136;24.796;2024-02-26T11:29:57;99483.28;;;18.36;100.00
10668;BME280;5382;42.136;24.796;2024-02-26T11:32:26;99480.25;;;18.22;100.00
10668;BME280;5382;42.136;24.796;2024-02-26T11:34:55;99410.91;;;17.80;100.00
10668;BME280;5382;42.136;24.796;2024-02-26T11:37:23;99478.75;;;18.20;100.00
10668;BME280;5382;42.136;24.796;2024-02-26T11:39:53;99427.78;;;17.97;100.00
10668;BME280;5382;42.136;24.796;2024-02-26T11:42:23;99452.00;;;18.12;100.00
10668;BME280;5382;42.136;24.796;2024-02-26T11:44:51;99421.25;;;17.99;100.00
10668;BME280;5382;42.136;24.796;2024-02-26T11:47:20;99465.53;;;18.35;100.00
10668;BME280;5382;42.136;24.796;2024-02-26T11:49:48;99467.34;;;18.42;100.00
10668;BME280;5382;42.136;24.796;2024-02-26T11:52:16;99449.28;;;18.36;100.00
10668;BME280;5382;42.136;24.796;2024-02-26T11:54:45;99379.94;;;18.02;100.00
10668;BME280;5382;42.136;24.796;2024-02-26T11:57:24;99450.63;;;18.88;100.00
10668;BME280;5382;42.136;24.796;2024-02-26T11:59:53;99413.38;;;18.62;100.00
10668;BME280;5382;42.136;24.796;2024-02-26T12:02:39;99456.38;;;18.68;99.19
10668;BME280;5382;42.136;24.796;2024-02-26T12:05:08;99402.59;;;18.22;99.19
10668;BME280;5382;42.136;24.796;2024-02-26T12:07:39;99449.03;;;18.62;99.41
10668;BME280;5382;42.136;24.796;2024-02-26T12:10:20;99416.22;;;18.60;96.98
10668;BME280;5382;42.136;24.796;2024-02-26T12:12:55;99442.41;;;18.89;97.56
10668;BME280;5382;42.136;24.796;2024-02-26T12:15:30;99435.78;;;18.77;98.06
10668;BME280;5382;42.136;24.796;2024-02-26T12:17:58;99441.16;;;19.08;97.21
10668;BME280;5382;42.136;24.796;2024-02-26T12:20:28;99426.38;;;19.35;94.89
10668;BME280;5382;42.136;24.796;2024-02-26T12:22:56;99358.59;;;19.42;93.57
10668;BME280;5382;42.136;24.796;2024-02-26T12:25:24;99434.63;;;19.95;91.20
10668;BME280;5382;42.136;24.796;2024-02-26T12:27:53;99419.63;;;20.00;92.36
10668;BME280;5382;42.136;24.796;2024-02-26T12:30:20;99351.91;;;19.37;91.45
10668;BME280;5382;42.136;24.796;2024-02-26T12:32:48;99411.00;;;19.75;90.30
10668;BME280;5382;42.136;24.796;2024-02-26T12:35:16;99413.44;;;19.62;91.76
10668;BME280;5382;42.136;24.796;2024-02-26T12:37:43;99370.84;;;19.21;93.83
10668;BME280;5382;42.136;24.796;2024-02-26T12:40:11;99408.97;;;19.31;94.12
10668;BME280;5382;42.136;24.796;2024-02-26T12:42:38;99409.63;;;19.33;93.68
10668;BME280;5382;42.136;24.796;2024-02-26T12:45:10;99337.53;;;19.15;93.39
10668;BME280;5382;42.136;24.796;2024-02-26T12:47:38;99398.84;;;19.42;92.79
10668;BME280;5382;42.136;24.796;2024-02-26T12:50:06;99396.94;;;19.27;93.64
10668;BME280;5382;42.136;24.796;2024-02-26T12:52:35;99398.84;;;19.18;94.98
10668;BME280;5382;42.136;24.796;2024-02-26T12:55:03;99404.22;;;19.18;94.90
10668;BME280;5382;42.136;24.796;2024-02-26T12:57:32;99376.72;;;19.16;94.43